sensor_id;sensor_type;location;lat;lon;timestamp;P1;durP1;ratioP1;P2;durP2;ratioP2
3491;SDS011;1760;52.480;13.422;2022-11-14T00:00:40;33.10;;;17.37;;
3491;SDS011;1760;52.480;13.422;2022-11-14T00:03:08;37.90;;;18.47;;
3491;SDS011;1760;52.480;13.422;2022-11-14T00:05:37;40.80;;;19.20;;
3491;SDS011;1760;52.480;13.422;2022-11-14T00:08:05;44.43;;;21.00;;
3491;SDS011;1760;52.480;13.422;2022-11-14T00:10:32;44.27;;;20.83;;
3491;SDS011;1760;52.480;13.422;2022-11-14T00:12:59;36.90;;;17.30;;
3491;SDS011;1760;52.480;13.422;2022-11-14T00:15:27;50.00;;;19.37;;
3491;SDS011;1760;52.480;13.422;2022-11-14T00:17:54;37.77;;;19.00;;
3491;SDS011;1760;52.480;13.422;2022-11-14T00:20:21;45.17;;;20.70;;
3491;SDS011;1760;52.480;13.422;2022-11-14T00:22:48;38.10;;;19.03;;
3491;SDS011;1760;52.480;13.422;2022-11-14T00:25:16;41.13;;;20.10;;
3491;SDS011;1760;52.480;13.422;2022-11-14T00:27:45;34.43;;;16.63;;
3491;SDS011;1760;52.480;13.422;2022-11-14T00:30:12;40.30;;;19.23;;
3491;SDS011;1760;52.480;13.422;2022-11-14T00:32:40;42.90;;;18.30;;
3491;SDS011;1760;52.480;13.422;2022-11-14T00:35:07;37.90;;;19.87;;
3491;SDS011;1760;52.480;13.422;2022-11-14T00:37:34;39.40;;;19.37;;
3491;SDS011;1760;52.480;13.422;2022-11-14T00:40:01;43.80;;;20.13;;
3491;SDS011;1760;52.480;13.422;2022-11-14T00:42:29;39.43;;;20.60;;
3491;SDS011;1760;52.480;13.422;2022-11-14T00:44:56;37.27;;;19.80;;
3491;SDS011;1760;52.480;13.422;2022-11-14T00:47:25;33.53;;;18.60;;
3491;SDS011;1760;52.480;13.422;2022-11-14T00:49:53;36.07;;;19.20;;
3491;SDS011;1760;52.480;13.422;2022-11-14T00:52:20;42.53;;;18.93;;
3491;SDS011;1760;52.480;13.422;2022-11-14T00:54:47;42.17;;;18.47;;
3491;SDS011;1760;52.480;13.422;2022-11-14T00:57:14;39.97;;;19.47;;
3491;SDS011;1760;52.480;13.422;2022-11-14T00:59:41;46.73;;;20.17;;
3491;SDS011;1760;52.480;13.422;2022-11-14T01:02:08;50.07;;;21.63;;
3491;SDS011;1760;52.480;13.422;2022-11-14T01:04:34;42.53;;;18.80;;
3491;SDS011;1760;52.480;13.422;2022-11-14T01:07:03;39.53;;;19.20;;
3491;SDS011;1760;52.480;13.422;2022-11-14T01:09:31;46.07;;;19.67;;
3491;SDS011;1760;52.480;13.422;2022-11-14T01:11:58;45.00;;;19.30;;
3491;SDS011;1760;52.480;13.422;2022-11-14T01:14:28;43.77;;;18.73;;
3491;SDS011;1760;52.480;13.422;2022-11-14T01:16:55;44.23;;;18.67;;
3491;SDS011;1760;52.480;13.422;2022-11-14T01:19:21;43.67;;;18.80;;
3491;SDS011;1760;52.480;13.422;2022-11-14T01:21:48;49.20;;;22.27;;
3491;SDS011;1760;52.480;13.422;2022-11-14T01:24:16;42.63;;;19.57;;
3491;SDS011;1760;52.480;13.422;2022-11-14T01:26:43;52.27;;;21.77;;
3491;SDS011;1760;52.480;13.422;2022-11-14T01:29:10;47.43;;;20.43;;
3491;SDS011;1760;52.480;13.422;2022-11-14T01:31:37;51.60;;;22.83;;
3491;SDS011;1760;52.480;13.422;2022-11-14T01:34:04;49.30;;;19.57;;
3491;SDS011;1760;52.480;13.422;2022-11-14T01:36:31;45.57;;;19.80;;
3491;SDS011;1760;52.480;13.422;2022-11-14T01:38:58;36.00;;;17.07;;
3491;SDS011;1760;52.480;13.422;2022-11-14T01:41:26;39.37;;;19.17;;
3491;SDS011;1760;52.480;13.422;2022-11-14T01:43:53;47.73;;;22.13;;
3491;SDS011;1760;52.480;13.422;2022-11-14T01:46:21;60.20;;;25.30;;
3491;SDS011;1760;52.480;13.422;2022-11-14T01:48:53;40.07;;;19.33;;
3491;SDS011;1760;52.480;13.422;2022-11-14T01:51:25;49.33;;;21.07;;
3491;SDS011;1760;52.480;13.422;2022-11-14T01:53:57;44.83;;;22.17;;
3491;SDS011;1760;52.480;13.422;2022-11-14T01:56:28;54.37;;;22.33;;
3491;SDS011;1760;52.480;13.422;2022-11-14T01:58:59;48.40;;;18.77;;
3491;SDS011;1760;52.480;13.422;2022-11-14T02:01:30;40.80;;;18.63;;
3491;SDS011;1760;52.480;13.422;2022-11-14T02:03:59;55.13;;;21.93;;
3491;SDS011;1760;52.480;13.422;2022-11-14T02:06:30;50.50;;;21.80;;
3491;SDS011;1760;52.480;13.422;2022-11-14T02:08:58;50.97;;;21.27;;
3491;SDS011;1760;52.480;13.422;2022-11-14T02:11:30;41.07;;;18.87;;
3491;SDS011;1760;52.480;13.422;2022-11-14T02:14:00;47.27;;;21.17;;
3491;SDS011;1760;52.480;13.422;2022-11-14T02:16:27;52.37;;;21.93;;
3491;SDS011;1760;52.480;13.422;2022-11-14T02:18:54;46.60;;;20.10;;
3491;SDS011;1760;52.480;13.422;2022-11-14T02:21:22;47.50;;;21.47;;
3491;SDS011;1760;52.480;13.422;2022-11-14T02:23:49;55.87;;;22.13;;
3491;SDS011;1760;52.480;13.422;2022-11-14T02:26:16;45.93;;;20.90;;
3491;SDS011;1760;52.480;13.422;2022-11-14T02:28:44;43.60;;;20.07;;
3491;SDS011;1760;52.480;13.422;2022-11-14T02:31:14;36.13;;;20.37;;
3491;SDS011;1760;52.480;13.422;2022-11-14T02:33:41;46.00;;;18.17;;
3491;SDS011;1760;52.480;13.422;2022-11-14T02:36:08;51.03;;;21.40;;
3491;SDS011;1760;52.480;13.422;2022-11-14T02:38:36;60.07;;;20.37;;
3491;SDS011;1760;52.480;13.422;2022-11-14T02:41:03;51.53;;;21.30;;
3491;SDS011;1760;52.480;13.422;2022-11-14T02:43:30;52.67;;;19.77;;
3491;SDS011;1760;52.480;13.422;2022-11-14T02:45:57;50.33;;;20.63;;
3491;SDS011;1760;52.480;13.422;2022-11-14T02:48:24;44.20;;;18.70;;
3491;SDS011;1760;52.480;13.422;2022-11-14T02:50:51;48.80;;;20.83;;
3491;SDS011;1760;52.480;13.422;2022-11-14T02:53:18;44.93;;;18.20;;
3491;SDS011;1760;52.480;13.422;2022-11-14T02:55:46;50.13;;;20.13;;
3491;SDS011;1760;52.480;13.422;2022-11-14T02:58:13;52.23;;;20.27;;
3491;SDS011;1760;52.480;13.422;2022-11-14T03:00:40;46.70;;;19.37;;
3491;SDS011;1760;52.480;13.422;2022-11-14T03:03:06;45.40;;;17.87;;
3491;SDS011;1760;52.480;13.422;2022-11-14T03:05:35;45.17;;;18.97;;
3491;SDS011;1760;52.480;13.422;2022-11-14T03:08:02;37.47;;;17.60;;
3491;SDS011;1760;52.480;13.422;2022-11-14T03:10:32;44.40;;;18.67;;
3491;SDS011;1760;52.480;13.422;2022-11-14T03:13:01;49.10;;;21.80;;
3491;SDS011;1760;52.480;13.422;2022-11-14T03:15:29;42.63;;;19.07;;
3491;SDS011;1760;52.480;13.422;2022-11-14T03:17:56;49.77;;;16.90;;
3491;SDS011;1760;52.480;13.422;2022-11-14T03:20:27;45.43;;;19.20;;
3491;SDS011;1760;52.480;13.422;2022-11-14T03:22:54;42.13;;;19.87;;
3491;SDS011;1760;52.480;13.422;2022-11-14T03:25:20;47.43;;;18.27;;
3491;SDS011;1760;52.480;13.422;2022-11-14T03:27:47;44.30;;;19.70;;
3491;SDS011;1760;52.480;13.422;2022-11-14T03:30:16;44.37;;;19.43;;
3491;SDS011;1760;52.480;13.422;2022-11-14T03:32:43;42.17;;;18.37;;
3491;SDS011;1760;52.480;13.422;2022-11-14T03:35:12;39.40;;;17.47;;
3491;SDS011;1760;52.480;13.422;2022-11-14T03:37:39;46.00;;;18.73;;
3491;SDS011;1760;52.480;13.422;2022-11-14T03:40:06;38.93;;;16.40;;
3491;SDS011;1760;52.480;13.422;2022-11-14T03:42:34;44.93;;;18.67;;
3491;SDS011;1760;52.480;13.422;2022-11-14T03:45:01;41.30;;;18.00;;
3491;SDS011;1760;52.480;13.422;2022-11-14T03:47:31;55.70;;;20.93;;
3491;SDS011;1760;52.480;13.422;2022-11-14T03:49:58;41.33;;;14.33;;
3491;SDS011;1760;52.480;13.422;2022-11-14T03:52:25;41.83;;;18.57;;
3491;SDS011;1760;52.480;13.422;2022-11-14T03:54:52;52.20;;;19.20;;
3491;SDS011;1760;52.480;13.422;2022-11-14T03:57:18;46.50;;;21.30;;
3491;SDS011;1760;52.480;13.422;2022-11-14T03:59:48;41.00;;;17.73;;
3491;SDS011;1760;52.480;13.422;2022-11-14T04:02:14;54.10;;;18.83;;
3491;SDS011;1760;52.480;13.422;2022-11-14T04:04:43;47.90;;;17.87;;
3491;SDS011;1760;52.480;13.422;2022-11-14T04:07:10;39.20;;;18.03;;
3491;SDS011;1760;52.480;13.422;2022-11-14T04:09:39;49.87;;;19.10;;
3491;SDS011;1760;52.480;13.422;2022-11-14T04:12:08;39.33;;;19.47;;
3491;SDS011;1760;52.480;13.422;2022-11-14T04:14:35;47.43;;;19.83;;
3491;SDS011;1760;52.480;13.422;2022-11-14T04:17:02;46.13;;;18.70;;
3491;SDS011;1760;52.480;13.422;2022-11-14T04:19:29;40.73;;;16.97;;
3491;SDS011;1760;52.480;13.422;2022-11-14T04:21:57;39.60;;;17.63;;
3491;SDS011;1760;52.480;13.422;2022-11-14T04:24:24;44.60;;;19.20;;
3491;SDS011;1760;52.480;13.422;2022-11-14T04:26:51;49.47;;;19.97;;
3491;SDS011;1760;52.480;13.422;2022-11-14T04:29:18;56.63;;;19.60;;
3491;SDS011;1760;52.480;13.422;2022-11-14T04:31:46;47.77;;;19.80;;
3491;SDS011;1760;52.480;13.422;2022-11-14T04:34:13;42.23;;;20.10;;
3491;SDS011;1760;52.480;13.422;2022-11-14T04:36:40;45.80;;;19.90;;
3491;SDS011;1760;52.480;13.422;2022-11-14T04:39:08;48.60;;;20.27;;
3491;SDS011;1760;52.480;13.422;2022-11-14T04:41:37;46.23;;;18.20;;
3491;SDS011;1760;52.480;13.422;2022-11-14T04:44:03;49.83;;;18.53;;
3491;SDS011;1760;52.480;13.422;2022-11-14T04:46:30;41.67;;;19.50;;
3491;SDS011;1760;52.480;13.422;2022-11-14T04:48:57;42.80;;;19.37;;
3491;SDS011;1760;52.480;13.422;2022-11-14T04:51:24;44.53;;;19.57;;
3491;SDS011;1760;52.480;13.422;2022-11-14T04:53:51;50.63;;;22.50;;
3491;SDS011;1760;52.480;13.422;2022-11-14T04:56:19;47.60;;;19.20;;
3491;SDS011;1760;52.480;13.422;2022-11-14T04:58:47;38.13;;;17.50;;
3491;SDS011;1760;52.480;13.422;2022-11-14T05:01:14;51.00;;;19.70;;
3491;SDS011;1760;52.480;13.422;2022-11-14T05:03:43;54.37;;;21.80;;
3491;SDS011;1760;52.480;13.422;2022-11-14T05:06:10;42.90;;;19.43;;
3491;SDS011;1760;52.480;13.422;2022-11-14T05:08:37;44.10;;;18.60;;
3491;SDS011;1760;52.480;13.422;2022-11-14T05:11:04;48.37;;;18.70;;
3491;SDS011;1760;52.480;13.422;2022-11-14T05:13:32;49.97;;;19.60;;
3491;SDS011;1760;52.480;13.422;2022-11-14T05:15:59;51.23;;;18.77;;
3491;SDS011;1760;52.480;13.422;2022-11-14T05:18:26;52.40;;;19.23;;
3491;SDS011;1760;52.480;13.422;2022-11-14T05:20:56;55.60;;;21.83;;
3491;SDS011;1760;52.480;13.422;2022-11-14T05:23:24;47.57;;;20.10;;
3491;SDS011;1760;52.480;13.422;2022-11-14T05:25:57;48.50;;;18.00;;
3491;SDS011;1760;52.480;13.422;2022-11-14T05:28:26;48.50;;;20.20;;
3491;SDS011;1760;52.480;13.422;2022-11-14T05:31:00;48.17;;;17.97;;
3491;SDS011;1760;52.480;13.422;2022-11-14T05:33:27;39.37;;;17.60;;
3491;SDS011;1760;52.480;13.422;2022-11-14T05:35:54;47.30;;;19.43;;
3491;SDS011;1760;52.480;13.422;2022-11-14T05:38:21;45.10;;;19.17;;
3491;SDS011;1760;52.480;13.422;2022-11-14T05:40:48;52.70;;;20.37;;
3491;SDS011;1760;52.480;13.422;2022-11-14T05:43:15;51.70;;;19.97;;
3491;SDS011;1760;52.480;13.422;2022-11-14T05:45:44;52.00;;;20.80;;
3491;SDS011;1760;52.480;13.422;2022-11-14T05:48:12;52.27;;;21.30;;
3491;SDS011;1760;52.480;13.422;2022-11-14T05:50:42;48.20;;;19.37;;
3491;SDS011;1760;52.480;13.422;2022-11-14T05:53:09;50.80;;;21.77;;
3491;SDS011;1760;52.480;13.422;2022-11-14T05:55:36;38.43;;;19.57;;
3491;SDS011;1760;52.480;13.422;2022-11-14T05:58:02;47.97;;;23.10;;
3491;SDS011;1760;52.480;13.422;2022-11-14T06:00:29;49.27;;;20.10;;
3491;SDS011;1760;52.480;13.422;2022-11-14T06:02:56;48.90;;;19.23;;
3491;SDS011;1760;52.480;13.422;2022-11-14T06:05:24;46.70;;;19.23;;
3491;SDS011;1760;52.480;13.422;2022-11-14T06:07:54;41.37;;;19.67;;
3491;SDS011;1760;52.480;13.422;2022-11-14T06:10:22;50.07;;;17.50;;
3491;SDS011;1760;52.480;13.422;2022-11-14T06:12:49;42.80;;;21.33;;
3491;SDS011;1760;52.480;13.422;2022-11-14T06:15:16;43.10;;;17.87;;
3491;SDS011;1760;52.480;13.422;2022-11-14T06:17:43;44.13;;;19.77;;
3491;SDS011;1760;52.480;13.422;2022-11-14T06:20:10;40.00;;;17.77;;
3491;SDS011;1760;52.480;13.422;2022-11-14T06:22:39;44.00;;;17.70;;
3491;SDS011;1760;52.480;13.422;2022-11-14T06:25:06;53.63;;;18.97;;
3491;SDS011;1760;52.480;13.422;2022-11-14T06:27:34;46.90;;;19.00;;
3491;SDS011;1760;52.480;13.422;2022-11-14T06:30:03;50.43;;;16.80;;
3491;SDS011;1760;52.480;13.422;2022-11-14T06:32:31;40.33;;;18.97;;
3491;SDS011;1760;52.480;13.422;2022-11-14T06:34:57;46.97;;;21.63;;
3491;SDS011;1760;52.480;13.422;2022-11-14T06:37:24;47.20;;;18.77;;
3491;SDS011;1760;52.480;13.422;2022-11-14T06:39:52;49.87;;;19.97;;
3491;SDS011;1760;52.480;13.422;2022-11-14T06:42:19;38.77;;;19.43;;
3491;SDS011;1760;52.480;13.422;2022-11-14T06:44:46;52.30;;;20.93;;
3491;SDS011;1760;52.480;13.422;2022-11-14T06:47:13;45.07;;;19.93;;
3491;SDS011;1760;52.480;13.422;2022-11-14T06:49:40;41.90;;;17.83;;
3491;SDS011;1760;52.480;13.422;2022-11-14T06:52:07;46.10;;;18.70;;
3491;SDS011;1760;52.480;13.422;2022-11-14T06:54:36;55.83;;;20.13;;
3491;SDS011;1760;52.480;13.422;2022-11-14T06:57:04;48.67;;;18.37;;
3491;SDS011;1760;52.480;13.422;2022-11-14T06:59:31;44.27;;;17.47;;
3491;SDS011;1760;52.480;13.422;2022-11-14T07:01:58;44.93;;;19.47;;
3491;SDS011;1760;52.480;13.422;2022-11-14T07:04:25;42.30;;;18.77;;
3491;SDS011;1760;52.480;13.422;2022-11-14T07:06:52;39.47;;;19.47;;
3491;SDS011;1760;52.480;13.422;2022-11-14T07:09:24;38.40;;;17.80;;
3491;SDS011;1760;52.480;13.422;2022-11-14T07:11:51;47.53;;;17.97;;
3491;SDS011;1760;52.480;13.422;2022-11-14T07:14:19;42.33;;;17.70;;
3491;SDS011;1760;52.480;13.422;2022-11-14T07:16:46;54.20;;;19.70;;
3491;SDS011;1760;52.480;13.422;2022-11-14T07:19:13;41.30;;;17.10;;
3491;SDS011;1760;52.480;13.422;2022-11-14T07:21:40;42.53;;;19.90;;
3491;SDS011;1760;52.480;13.422;2022-11-14T07:24:07;40.67;;;19.23;;
3491;SDS011;1760;52.480;13.422;2022-11-14T07:26:33;43.17;;;18.10;;
3491;SDS011;1760;52.480;13.422;2022-11-14T07:29:00;44.57;;;20.27;;
3491;SDS011;1760;52.480;13.422;2022-11-14T07:31:30;54.13;;;16.90;;
3491;SDS011;1760;52.480;13.422;2022-11-14T07:34:00;40.03;;;17.23;;
3491;SDS011;1760;52.480;13.422;2022-11-14T07:36:27;52.67;;;18.03;;
3491;SDS011;1760;52.480;13.422;2022-11-14T07:38:53;46.30;;;19.63;;
3491;SDS011;1760;52.480;13.422;2022-11-14T07:41:20;46.57;;;18.77;;
3491;SDS011;1760;52.480;13.422;2022-11-14T07:43:47;44.43;;;19.40;;
3491;SDS011;1760;52.480;13.422;2022-11-14T07:46:15;49.10;;;19.40;;
3491;SDS011;1760;52.480;13.422;2022-11-14T07:48:44;41.43;;;19.57;;
3491;SDS011;1760;52.480;13.422;2022-11-14T07:51:13;43.73;;;19.37;;
3491;SDS011;1760;52.480;13.422;2022-11-14T07:53:41;43.37;;;19.17;;
3491;SDS011;1760;52.480;13.422;2022-11-14T07:56:07;49.80;;;18.97;;
3491;SDS011;1760;52.480;13.422;2022-11-14T07:58:35;37.10;;;18.27;;
3491;SDS011;1760;52.480;13.422;2022-11-14T08:01:03;36.37;;;16.10;;
3491;SDS011;1760;52.480;13.422;2022-11-14T08:03:32;38.10;;;17.30;;
3491;SDS011;1760;52.480;13.422;2022-11-14T08:06:01;45.33;;;19.10;;
3491;SDS011;1760;52.480;13.422;2022-11-14T08:08:29;41.90;;;18.20;;
3491;SDS011;1760;52.480;13.422;2022-11-14T08:10:56;43.70;;;17.60;;
3491;SDS011;1760;52.480;13.422;2022-11-14T08:13:24;44.27;;;17.07;;
3491;SDS011;1760;52.480;13.422;2022-11-14T08:15:51;42.10;;;18.43;;
3491;SDS011;1760;52.480;13.422;2022-11-14T08:18:18;38.63;;;17.23;;
3491;SDS011;1760;52.480;13.422;2022-11-14T08:20:47;42.83;;;16.83;;
3491;SDS011;1760;52.480;13.422;2022-11-14T08:23:15;42.70;;;18.30;;
3491;SDS011;1760;52.480;13.422;2022-11-14T08:25:45;47.07;;;17.23;;
3491;SDS011;1760;52.480;13.422;2022-11-14T08:28:12;39.10;;;17.70;;
3491;SDS011;1760;52.480;13.422;2022-11-14T08:30:41;54.90;;;17.77;;
3491;SDS011;1760;52.480;13.422;2022-11-14T08:33:11;56.07;;;21.00;;
3491;SDS011;1760;52.480;13.422;2022-11-14T08:35:38;53.77;;;19.37;;
3491;SDS011;1760;52.480;13.422;2022-11-14T08:38:05;52.73;;;18.23;;
3491;SDS011;1760;52.480;13.422;2022-11-14T08:40:35;52.27;;;17.57;;
3491;SDS011;1760;52.480;13.422;2022-11-14T08:43:02;39.90;;;18.33;;
3491;SDS011;1760;52.480;13.422;2022-11-14T08:45:29;37.17;;;16.97;;
3491;SDS011;1760;52.480;13.422;2022-11-14T08:47:56;61.40;;;21.20;;
3491;SDS011;1760;52.480;13.422;2022-11-14T08:50:26;45.73;;;21.00;;
3491;SDS011;1760;52.480;13.422;2022-11-14T08:52:53;45.93;;;17.30;;
3491;SDS011;1760;52.480;13.422;2022-11-14T08:55:20;45.63;;;17.87;;
3491;SDS011;1760;52.480;13.422;2022-11-14T08:57:50;35.67;;;17.80;;
3491;SDS011;1760;52.480;13.422;2022-11-14T09:00:19;45.43;;;19.23;;
3491;SDS011;1760;52.480;13.422;2022-11-14T09:02:49;35.40;;;15.53;;
3491;SDS011;1760;52.480;13.422;2022-11-14T09:05:16;42.60;;;18.90;;
3491;SDS011;1760;52.480;13.422;2022-11-14T09:07:43;33.63;;;15.00;;
3491;SDS011;1760;52.480;13.422;2022-11-14T09:10:10;38.70;;;17.40;;
3491;SDS011;1760;52.480;13.422;2022-11-14T09:12:37;39.83;;;18.37;;
3491;SDS011;1760;52.480;13.422;2022-11-14T09:15:06;61.17;;;20.97;;
3491;SDS011;1760;52.480;13.422;2022-11-14T09:17:35;40.80;;;16.47;;
3491;SDS011;1760;52.480;13.422;2022-11-14T09:20:03;46.03;;;18.83;;
3491;SDS011;1760;52.480;13.422;2022-11-14T09:22:30;43.27;;;19.47;;
3491;SDS011;1760;52.480;13.422;2022-11-14T09:24:57;34.20;;;17.10;;
3491;SDS011;1760;52.480;13.422;2022-11-14T09:27:25;44.10;;;15.93;;
3491;SDS011;1760;52.480;13.422;2022-11-14T09:29:53;40.97;;;16.27;;
3491;SDS011;1760;52.480;13.422;2022-11-14T09:32:23;39.80;;;15.63;;
3491;SDS011;1760;52.480;13.422;2022-11-14T09:34:50;33.43;;;16.17;;
3491;SDS011;1760;52.480;13.422;2022-11-14T09:37:17;37.57;;;18.40;;
3491;SDS011;1760;52.480;13.422;2022-11-14T09:39:44;39.20;;;17.93;;
3491;SDS011;1760;52.480;13.422;2022-11-14T09:42:16;31.03;;;16.07;;
3491;SDS011;1760;52.480;13.422;2022-11-14T09:44:55;33.97;;;17.20;;
3491;SDS011;1760;52.480;13.422;2022-11-14T09:47:26;35.37;;;19.93;;
3491;SDS011;1760;52.480;13.422;2022-11-14T09:49:56;34.70;;;17.97;;
3491;SDS011;1760;52.480;13.422;2022-11-14T09:52:29;31.43;;;14.00;;
3491;SDS011;1760;52.480;13.422;2022-11-14T09:55:00;36.93;;;16.37;;
3491;SDS011;1760;52.480;13.422;2022-11-14T09:57:34;23.50;;;13.73;;
3491;SDS011;1760;52.480;13.422;2022-11-14T10:00:05;30.50;;;15.87;;
3491;SDS011;1760;52.480;13.422;2022-11-14T10:02:40;32.43;;;15.70;;
3491;SDS011;1760;52.480;13.422;2022-11-14T10:05:29;98.13;;;41.63;;
3491;SDS011;1760;52.480;13.422;2022-11-14T10:08:27;32.93;;;16.30;;
3491;SDS011;1760;52.480;13.422;2022-11-14T10:11:05;33.13;;;15.93;;
3491;SDS011;1760;52.480;13.422;2022-11-14T10:13:41;31.93;;;16.97;;
3491;SDS011;1760;52.480;13.422;2022-11-14T10:16:17;25.47;;;13.27;;
3491;SDS011;1760;52.480;13.422;2022-11-14T10:18:56;28.30;;;17.60;;
3491;SDS011;1760;52.480;13.422;2022-11-14T10:21:34;39.70;;;18.33;;
3491;SDS011;1760;52.480;13.422;2022-11-14T10:24:16;43.73;;;17.07;;
3491;SDS011;1760;52.480;13.422;2022-11-14T10:26:56;27.67;;;14.67;;
3491;SDS011;1760;52.480;13.422;2022-11-14T10:29:34;31.87;;;15.90;;
3491;SDS011;1760;52.480;13.422;2022-11-14T10:32:14;33.13;;;15.73;;
3491;SDS011;1760;52.480;13.422;2022-11-14T10:34:50;33.13;;;15.77;;
3491;SDS011;1760;52.480;13.422;2022-11-14T10:37:22;31.03;;;15.60;;
3491;SDS011;1760;52.480;13.422;2022-11-14T10:39:52;29.23;;;14.33;;
3491;SDS011;1760;52.480;13.422;2022-11-14T10:42:22;36.13;;;15.20;;
3491;SDS011;1760;52.480;13.422;2022-11-14T10:44:56;22.83;;;13.90;;
3491;SDS011;1760;52.480;13.422;2022-11-14T10:47:29;46.40;;;17.57;;
3491;SDS011;1760;52.480;13.422;2022-11-14T10:50:10;29.30;;;15.47;;
3491;SDS011;1760;52.480;13.422;2022-11-14T10:52:43;33.70;;;15.13;;
3491;SDS011;1760;52.480;13.422;2022-11-14T10:55:13;33.43;;;15.77;;
3491;SDS011;1760;52.480;13.422;2022-11-14T10:57:42;32.23;;;15.50;;
3491;SDS011;1760;52.480;13.422;2022-11-14T11:00:11;29.20;;;13.93;;
3491;SDS011;1760;52.480;13.422;2022-11-14T11:02:47;34.37;;;15.30;;
3491;SDS011;1760;52.480;13.422;2022-11-14T11:05:19;27.60;;;15.07;;
3491;SDS011;1760;52.480;13.422;2022-11-14T11:07:48;27.10;;;14.40;;
3491;SDS011;1760;52.480;13.422;2022-11-14T11:10:33;29.30;;;14.90;;
3491;SDS011;1760;52.480;13.422;2022-11-14T11:13:29;28.03;;;13.93;;
3491;SDS011;1760;52.480;13.422;2022-11-14T11:15:58;32.93;;;13.90;;
3491;SDS011;1760;52.480;13.422;2022-11-14T11:18:27;26.87;;;13.40;;
3491;SDS011;1760;52.480;13.422;2022-11-14T11:21:06;32.43;;;15.30;;
3491;SDS011;1760;52.480;13.422;2022-11-14T11:23:35;31.43;;;15.20;;
3491;SDS011;1760;52.480;13.422;2022-11-14T11:26:17;34.60;;;14.27;;
3491;SDS011;1760;52.480;13.422;2022-11-14T11:29:00;30.13;;;14.97;;
3491;SDS011;1760;52.480;13.422;2022-11-14T11:31:41;30.13;;;13.40;;
3491;SDS011;1760;52.480;13.422;2022-11-14T11:34:16;31.40;;;13.83;;
3491;SDS011;1760;52.480;13.422;2022-11-14T11:36:56;38.57;;;16.20;;
3491;SDS011;1760;52.480;13.422;2022-11-14T11:39:28;32.67;;;14.97;;
3491;SDS011;1760;52.480;13.422;2022-11-14T11:41:58;31.40;;;14.03;;
3491;SDS011;1760;52.480;13.422;2022-11-14T11:44:33;26.80;;;13.00;;
3491;SDS011;1760;52.480;13.422;2022-11-14T11:47:03;29.50;;;14.43;;
3491;SDS011;1760;52.480;13.422;2022-11-14T11:49:38;31.47;;;14.80;;
3491;SDS011;1760;52.480;13.422;2022-11-14T11:52:12;32.47;;;14.53;;
3491;SDS011;1760;52.480;13.422;2022-11-14T11:54:49;29.63;;;14.47;;
3491;SDS011;1760;52.480;13.422;2022-11-14T11:57:26;27.13;;;14.47;;
3491;SDS011;1760;52.480;13.422;2022-11-14T11:59:58;45.30;;;22.87;;
3491;SDS011;1760;52.480;13.422;2022-11-14T12:02:30;28.30;;;12.83;;
3491;SDS011;1760;52.480;13.422;2022-11-14T12:05:00;28.93;;;14.73;;
3491;SDS011;1760;52.480;13.422;2022-11-14T12:07:32;24.50;;;13.83;;
3491;SDS011;1760;52.480;13.422;2022-11-14T12:10:06;27.93;;;12.90;;
3491;SDS011;1760;52.480;13.422;2022-11-14T12:12:47;27.90;;;12.83;;
3491;SDS011;1760;52.480;13.422;2022-11-14T12:15:34;25.90;;;13.40;;
3491;SDS011;1760;52.480;13.422;2022-11-14T12:18:13;21.77;;;12.10;;
3491;SDS011;1760;52.480;13.422;2022-11-14T12:20:55;23.17;;;12.90;;
3491;SDS011;1760;52.480;13.422;2022-11-14T12:26:52;21.97;;;13.07;;
3491;SDS011;1760;52.480;13.422;2022-11-14T12:29:35;22.27;;;10.83;;
3491;SDS011;1760;52.480;13.422;2022-11-14T12:32:14;21.60;;;11.83;;
3491;SDS011;1760;52.480;13.422;2022-11-14T12:34:44;27.00;;;13.30;;
3491;SDS011;1760;52.480;13.422;2022-11-14T12:37:14;20.50;;;12.57;;
3491;SDS011;1760;52.480;13.422;2022-11-14T12:39:55;23.00;;;13.13;;
3491;SDS011;1760;52.480;13.422;2022-11-14T12:42:25;24.27;;;12.53;;
3491;SDS011;1760;52.480;13.422;2022-11-14T12:44:52;27.43;;;14.20;;
3491;SDS011;1760;52.480;13.422;2022-11-14T12:47:20;27.10;;;12.13;;
3491;SDS011;1760;52.480;13.422;2022-11-14T12:52:51;27.60;;;14.57;;
3491;SDS011;1760;52.480;13.422;2022-11-14T12:58:43;23.73;;;11.37;;
3491;SDS011;1760;52.480;13.422;2022-11-14T13:01:19;22.47;;;12.53;;
3491;SDS011;1760;52.480;13.422;2022-11-14T13:04:00;22.63;;;11.67;;
3491;SDS011;1760;52.480;13.422;2022-11-14T13:06:43;21.37;;;12.30;;
3491;SDS011;1760;52.480;13.422;2022-11-14T13:09:31;19.93;;;10.67;;
3491;SDS011;1760;52.480;13.422;2022-11-14T13:18:20;21.33;;;11.77;;
3491;SDS011;1760;52.480;13.422;2022-11-14T13:24:11;21.73;;;11.57;;
3491;SDS011;1760;52.480;13.422;2022-11-14T13:26:50;18.73;;;11.17;;
3491;SDS011;1760;52.480;13.422;2022-11-14T13:35:28;24.10;;;12.57;;
3491;SDS011;1760;52.480;13.422;2022-11-14T13:41:15;22.70;;;13.77;;
3491;SDS011;1760;52.480;13.422;2022-11-14T13:44:08;20.93;;;12.60;;
3491;SDS011;1760;52.480;13.422;2022-11-14T13:46:54;23.23;;;12.20;;
3491;SDS011;1760;52.480;13.422;2022-11-14T13:49:35;26.80;;;11.30;;
3491;SDS011;1760;52.480;13.422;2022-11-14T13:52:17;21.00;;;11.60;;
3491;SDS011;1760;52.480;13.422;2022-11-14T13:54:45;23.80;;;11.07;;
3491;SDS011;1760;52.480;13.422;2022-11-14T13:57:14;20.30;;;11.93;;
3491;SDS011;1760;52.480;13.422;2022-11-14T13:59:49;18.70;;;11.80;;
3491;SDS011;1760;52.480;13.422;2022-11-14T14:05:30;19.10;;;11.40;;
3491;SDS011;1760;52.480;13.422;2022-11-14T14:08:13;21.37;;;12.10;;
3491;SDS011;1760;52.480;13.422;2022-11-14T14:10:51;17.20;;;12.03;;
3491;SDS011;1760;52.480;13.422;2022-11-14T14:13:30;24.10;;;10.70;;
3491;SDS011;1760;52.480;13.422;2022-11-14T14:16:09;21.53;;;12.13;;
3491;SDS011;1760;52.480;13.422;2022-11-14T14:18:43;20.47;;;11.60;;
3491;SDS011;1760;52.480;13.422;2022-11-14T14:21:26;18.30;;;10.77;;
3491;SDS011;1760;52.480;13.422;2022-11-14T14:24:02;20.43;;;11.03;;
3491;SDS011;1760;52.480;13.422;2022-11-14T14:26:37;18.40;;;11.93;;
3491;SDS011;1760;52.480;13.422;2022-11-14T14:29:21;24.83;;;13.13;;
3491;SDS011;1760;52.480;13.422;2022-11-14T14:31:51;20.10;;;12.57;;
3491;SDS011;1760;52.480;13.422;2022-11-14T14:34:19;18.87;;;11.60;;
3491;SDS011;1760;52.480;13.422;2022-11-14T14:36:51;21.70;;;11.60;;
3491;SDS011;1760;52.480;13.422;2022-11-14T14:39:24;21.57;;;12.70;;
3491;SDS011;1760;52.480;13.422;2022-11-14T14:41:52;19.20;;;11.50;;
3491;SDS011;1760;52.480;13.422;2022-11-14T14:44:22;22.27;;;12.63;;
3491;SDS011;1760;52.480;13.422;2022-11-14T14:46:51;26.47;;;13.10;;
3491;SDS011;1760;52.480;13.422;2022-11-14T14:49:20;17.00;;;11.43;;
3491;SDS011;1760;52.480;13.422;2022-11-14T14:51:52;19.87;;;12.20;;
3491;SDS011;1760;52.480;13.422;2022-11-14T14:54:20;17.20;;;11.37;;
3491;SDS011;1760;52.480;13.422;2022-11-14T14:56:52;22.43;;;13.90;;
3491;SDS011;1760;52.480;13.422;2022-11-14T14:59:20;15.13;;;10.80;;
3491;SDS011;1760;52.480;13.422;2022-11-14T15:01:49;17.93;;;11.50;;
3491;SDS011;1760;52.480;13.422;2022-11-14T15:04:16;17.70;;;11.00;;
3491;SDS011;1760;52.480;13.422;2022-11-14T15:06:48;22.23;;;11.77;;
3491;SDS011;1760;52.480;13.422;2022-11-14T15:09:17;19.53;;;12.90;;
3491;SDS011;1760;52.480;13.422;2022-11-14T15:11:46;20.60;;;12.23;;
3491;SDS011;1760;52.480;13.422;2022-11-14T15:14:16;24.37;;;11.63;;
3491;SDS011;1760;52.480;13.422;2022-11-14T15:16:45;18.53;;;11.07;;
3491;SDS011;1760;52.480;13.422;2022-11-14T15:19:15;22.93;;;13.47;;
3491;SDS011;1760;52.480;13.422;2022-11-14T15:21:55;20.10;;;12.37;;